Time;durP1;ratioP1;P1;durP2;ratioP2;P2;SDS_P1;SDS_P2;PMS_P1;PMS_P2;Temp;Humidity;BMP_temperature;BMP_pressure;BME280_temperature;BME280_humidity;BME280_pressure;Samples;Min_cycle;Max_cycle;Signal;HPM_P1;HPM_P2
2022/07/28 00:02:23;;;;;;;;;;;15.50;99.90;;;;;;5053533;28;20048;-54
2022/07/28 00:04:50;;;;;;;9.85;4.60;;;15.40;99.90;;;;;;5052658;28;19924;-53
2022/07/28 00:07:17;;;;;;;;;;;15.40;99.90;;;;;;5053509;28;20036;-53
2022/07/28 00:09:44;;;;;;;4.20;3.75;;;15.40;99.90;;;;;;5059810;28;19920;-54
2022/07/28 00:12:10;;;;;;;4.32;3.28;;;15.30;99.90;;;;;;5061354;28;20051;-54
2022/07/28 00:14:37;;;;;;;;;;;15.30;99.90;;;;;;5050984;28;20089;-54
2022/07/28 00:17:04;;;;;;;4.43;3.15;;;15.20;99.90;;;;;;5052703;28;19924;-53
2022/07/28 00:19:30;;;;;;;;;;;15.20;99.90;;;;;;5052383;28;20650;-52
2022/07/28 00:21:57;;;;;;;5.38;4.07;;;15.20;99.90;;;;;;5052436;28;19935;-54
2022/07/28 00:24:24;;;;;;;;;;;15.20;99.90;;;;;;5052109;28;20068;-53
2022/07/28 00:26:51;;;;;;;3.50;3.10;;;15.10;99.90;;;;;;5066754;28;19928;-53
2022/07/28 00:29:18;;;;;;;3.90;3.50;;;15.10;99.90;;;;;;5064772;28;20097;-57
2022/07/28 00:31:45;;;;;;;5.82;3.70;;;15.10;99.90;;;;;;5072147;28;20101;-54
2022/07/28 00:34:12;;;;;;;6.30;4.47;;;15.10;99.90;;;;;;5072099;28;20805;-53
2022/07/28 00:36:39;;;;;;;7.55;4.68;;;15.00;99.90;;;;;;5072062;28;20055;-54
2022/07/28 00:39:06;;;;;;;6.40;4.00;;;14.90;99.90;;;;;;5072501;28;20105;-54
2022/07/28 00:41:33;;;;;;;;;;;14.80;99.90;;;;;;5072504;28;20052;-54
2022/07/28 00:44:00;;;;;;;5.80;4.55;;;14.70;99.90;;;;;;5069828;28;19923;-53
2022/07/28 00:46:27;;;;;;;4.60;4.20;;;14.70;99.90;;;;;;5071853;28;20040;-54
2022/07/28 00:48:54;;;;;;;7.65;4.88;;;14.60;99.90;;;;;;5072586;28;20109;-53
2022/07/28 00:51:23;;;;;;;;;;;14.60;99.90;;;;;;5072525;28;20039;-52
2022/07/28 00:53:51;;;;;;;8.10;5.07;;;14.60;99.90;;;;;;5071707;28;19926;-54
2022/07/28 00:56:19;;;;;;;7.18;5.10;;;14.50;99.90;;;;;;5072835;28;20048;-54
2022/07/28 00:58:46;;;;;;;6.35;4.68;;;14.50;99.90;;;;;;5072146;28;20109;-52
2022/07/28 01:01:16;;;;;;;5.70;4.10;;;14.40;99.90;;;;;;5071107;28;20052;-54
2022/07/28 01:03:50;;;;;;;4.55;4.00;;;14.50;99.90;;;;;;5071662;28;20036;-53
2022/07/28 01:06:38;;;;;;;6.07;4.40;;;14.40;99.90;;;;;;5072369;28;20032;-56
2022/07/28 01:09:37;;;;;;;5.40;4.78;;;14.40;99.90;;;;;;5069746;28;20044;-51
2022/07/28 01:12:29;;;;;;;7.18;5.18;;;14.40;99.90;;;;;;5062454;28;20036;-54
2022/07/28 01:15:09;;;;;;;6.88;4.53;;;14.40;99.90;;;;;;5052470;28;20040;-53
2022/07/28 01:17:43;;;;;;;4.95;4.00;;;14.40;99.90;;;;;;5050161;28;20214;-54
2022/07/28 01:20:30;;;;;;;8.98;5.35;;;14.40;99.90;;;;;;5051390;28;20049;-53
2022/07/28 01:23:09;;;;;;;5.75;4.40;;;14.40;99.90;;;;;;5051550;28;20040;-53
2022/07/28 01:25:46;;;;;;;4.88;4.40;;;14.40;99.90;;;;;;5051534;28;20078;-53
2022/07/28 01:28:26;;;;;;;5.82;4.88;;;14.40;99.90;;;;;;5050575;28;20371;-53
2022/07/28 01:31:01;;;;;;;8.88;5.50;;;14.40;99.90;;;;;;5068647;28;20105;-53
2022/07/28 01:33:34;;;;;;;7.75;5.07;;;14.40;99.90;;;;;;5071407;28;20136;-53
2022/07/28 01:36:08;;;;;;;8.02;5.00;;;14.40;99.90;;;;;;5053443;28;20040;-53
2022/07/28 01:38:37;;;;;;;5.53;4.93;;;14.40;99.90;;;;;;5055454;28;20044;-53
2022/07/28 01:41:11;;;;;;;4.78;4.38;;;14.40;99.90;;;;;;5074984;28;20040;-53
2022/07/28 01:43:41;;;;;;;5.57;4.25;;;14.40;99.90;;;;;;5040357;28;20054;-53
2022/07/28 01:46:09;;;;;;;7.18;5.38;;;14.40;99.90;;;;;;5037568;28;20044;-54
2022/07/28 01:48:38;;;;;;;6.53;4.80;;;14.40;99.90;;;;;;5020371;28;20040;-54
2022/07/28 01:51:07;;;;;;;4.70;4.30;;;14.40;99.90;;;;;;5055036;28;20051;-54
2022/07/28 01:53:37;;;;;;;6.30;5.15;;;14.40;99.90;;;;;;5054465;28;20044;-52
2022/07/28 01:56:06;;;;;;;4.60;4.20;;;14.30;99.90;;;;;;5037066;28;20562;-52
2022/07/28 01:58:34;;;;;;;6.72;4.82;;;14.30;99.90;;;;;;5054983;28;20056;-52
2022/07/28 02:01:02;;;;;;;4.97;4.57;;;14.20;99.90;;;;;;5065020;28;20035;-53
2022/07/28 02:03:31;;;;;;;5.20;4.70;;;14.10;99.90;;;;;;5072881;28;20036;-54
2022/07/28 02:06:01;;;;;;;6.75;4.93;;;14.10;99.90;;;;;;5075141;28;20044;-53
2022/07/28 02:08:30;;;;;;;7.75;5.18;;;14.10;99.90;;;;;;5073103;28;20040;-53
2022/07/28 02:13:47;;;;;;;4.60;4.20;;;14.10;99.90;;;;;;5066203;28;20712;-54
2022/07/28 02:16:16;;;;;;;6.18;5.00;;;14.10;99.90;;;;;;5053664;28;20055;-53
2022/07/28 02:18:45;;;;;;;6.78;5.55;;;14.10;99.90;;;;;;5054740;28;20048;-54
2022/07/28 02:21:13;;;;;;;4.95;4.43;;;14.00;99.90;;;;;;5054091;28;20053;-54
2022/07/28 02:23:42;;;;;;;6.30;4.20;;;14.00;99.90;;;;;;5054662;28;20040;-52
2022/07/28 02:26:11;;;;;;;5.72;5.00;;;14.00;99.90;;;;;;5053737;28;20048;-53
2022/07/28 02:28:42;;;;;;;6.20;4.60;;;14.00;99.90;;;;;;5053362;28;20114;-52
2022/07/28 02:31:14;;;;;;;4.60;4.20;;;14.00;99.90;;;;;;5066043;28;20955;-53
2022/07/28 02:33:42;;;;;;;5.78;4.35;;;13.90;99.90;;;;;;5071571;28;20494;-54
2022/07/28 02:36:36;;;;;;;4.60;4.00;;;14.00;99.90;;;;;;5074306;28;20051;-53
2022/07/28 02:39:10;;;;;;;9.68;4.90;;;13.90;99.90;;;;;;5074775;28;20048;-52
2022/07/28 02:41:41;;;;;;;9.23;4.97;;;13.90;99.90;;;;;;5074249;28;20109;-51
2022/07/28 02:44:16;;;;;;;10.25;6.00;;;13.90;99.90;;;;;;5063599;28;20122;-53
2022/07/28 02:46:46;;;;;;;5.45;4.95;;;13.90;99.90;;;;;;5053035;28;20147;-52
2022/07/28 02:49:18;;;;;;;5.03;4.60;;;13.80;99.90;;;;;;5054143;28;20094;-52
2022/07/28 02:51:48;;;;;;;5.30;4.68;;;13.80;99.90;;;;;;5055775;28;20042;-50
2022/07/28 02:54:16;;;;;;;7.95;5.10;;;13.80;99.90;;;;;;5054857;28;20741;-54
2022/07/28 02:56:46;;;;;;;9.75;5.93;;;13.80;99.90;;;;;;5054840;28;20044;-53
2022/07/28 02:59:20;;;;;;;8.20;5.55;;;13.70;99.90;;;;;;5053780;28;20687;-54
2022/07/28 03:01:48;;;;;;;10.05;5.95;;;13.70;99.90;;;;;;5068693;28;20700;-54
2022/07/28 03:04:55;;;;;;;6.45;5.78;;;13.70;99.90;;;;;;5073949;28;20036;-53
2022/07/28 03:07:04;;;;;;;5.97;5.38;;;13.70;99.90;;;;;;5075556;28;20036;-54
2022/07/28 03:09:43;;;;;;;12.65;6.60;;;13.70;99.90;;;;;;5056763;28;20102;-56
2022/07/28 03:12:10;;;;;;;6.22;4.55;;;13.60;99.90;;;;;;5063739;28;20044;-54
2022/07/28 03:14:37;;;;;;;6.25;5.30;;;13.60;99.90;;;;;;5054432;28;20045;-56
2022/07/28 03:17:04;;;;;;;;;;;13.60;99.90;;;;;;5055673;28;20072;-55
2022/07/28 03:19:31;;;;;;;6.33;4.90;;;13.60;99.90;;;;;;5054878;28;20478;-54
2022/07/28 03:21:59;;;;;;;4.95;4.50;;;13.60;99.90;;;;;;5054492;28;20135;-54
2022/07/28 03:24:29;;;;;;;5.90;5.05;;;13.70;99.90;;;;;;5054607;28;20579;-55
2022/07/28 03:27:12;;;;;;;4.80;4.28;;;13.60;99.90;;;;;;5020479;28;20563;-53
2022/07/28 03:29:41;;;;;;;5.43;4.18;;;13.60;99.90;;;;;;5068141;28;20040;-54
2022/07/28 03:32:08;;;;;;;4.88;4.38;;;13.60;99.90;;;;;;5073134;28;20069;-55
2022/07/28 03:34:36;;;;;;;5.13;4.63;;;13.60;99.90;;;;;;5055413;28;20441;-54
2022/07/28 03:37:11;;;;;;;5.72;4.80;;;13.60;99.90;;;;;;5074133;28;20113;-55
2022/07/28 03:39:45;;;;;;;6.53;5.28;;;13.60;99.90;;;;;;5074775;28;20101;-55
2022/07/28 03:42:17;;;;;;;5.93;5.32;;;13.60;99.90;;;;;;5074708;28;20048;-54
2022/07/28 03:44:47;;;;;;;5.55;5.03;;;13.60;99.90;;;;;;5058305;28;20534;-54
2022/07/28 03:47:19;;;;;;;13.70;5.10;;;13.60;99.90;;;;;;5054797;28;20044;-54
2022/07/28 03:49:46;;;;;;;5.95;4.30;;;13.60;99.90;;;;;;5019860;28;20051;-55
2022/07/28 03:52:12;;;;;;;13.38;7.43;;;13.60;99.90;;;;;;5054435;28;20041;-55
2022/07/28 03:54:39;;;;;;;;;;;13.50;99.90;;;;;;5054321;28;20884;-55
2022/07/28 03:57:06;;;;;;;13.43;4.90;;;13.50;99.90;;;;;;5054223;28;19963;-55
2022/07/28 03:59:33;;;;;;;5.45;4.95;;;13.50;99.90;;;;;;5052543;28;20051;-55
2022/07/28 04:01:59;;;;;;;;;;;13.50;99.90;;;;;;5052878;28;20601;-56
2022/07/28 04:04:27;;;;;;;7.38;4.82;;;13.50;99.90;;;;;;5053431;28;19920;-55
2022/07/28 04:06:53;;;;;;;7.90;5.03;;;13.50;99.90;;;;;;5054243;28;20040;-58
2022/07/28 04:09:22;;;;;;;6.00;5.47;;;13.50;99.90;;;;;;5058060;28;20067;-55
2022/07/28 04:11:48;;;;;;;6.35;4.40;;;13.50;99.90;;;;;;5065492;28;20041;-55
2022/07/28 04:14:16;;;;;;;7.97;4.72;;;13.50;99.90;;;;;;5052058;28;20704;-51
2022/07/28 04:16:44;;;;;;;6.47;4.47;;;13.50;99.90;;;;;;5051845;28;20044;-54
2022/07/28 04:19:11;;;;;;;4.13;3.72;;;13.50;99.90;;;;;;5053779;28;20137;-54
2022/07/28 04:21:37;;;;;;;8.57;5.00;;;13.40;99.90;;;;;;5053743;28;20823;-55
2022/07/28 04:24:04;;;;;;;;;;;13.40;99.90;;;;;;5054232;28;20056;-55
2022/07/28 04:26:31;;;;;;;6.68;5.35;;;13.40;99.90;;;;;;5053697;28;19999;-54
2022/07/28 04:28:58;;;;;;;8.60;5.18;;;13.40;99.90;;;;;;5062476;28;20458;-54
2022/07/28 04:31:29;;;;;;;7.03;4.93;;;13.40;99.90;;;;;;5073943;28;20105;-52
2022/07/28 04:33:56;;;;;;;5.40;4.90;;;13.40;99.90;;;;;;5070992;28;20117;-53
2022/07/28 04:36:22;;;;;;;8.38;5.15;;;13.50;99.90;;;;;;5074251;28;20048;-52
2022/07/28 04:38:49;;;;;;;;;;;13.50;99.90;;;;;;5074062;28;20779;-52
2022/07/28 04:41:16;;;;;;;7.45;5.38;;;13.50;99.90;;;;;;5074224;28;19920;-54
2022/07/28 04:43:44;;;;;;;;;;;13.60;99.90;;;;;;5056339;28;20046;-51
2022/07/28 04:46:10;;;;;;;7.32;4.57;;;13.60;99.90;;;;;;5053380;28;19924;-52
2022/07/28 04:48:41;;;;;;;6.80;4.63;;;13.70;99.90;;;;;;5052826;28;20049;-52
2022/07/28 04:51:08;;;;;;;6.57;5.13;;;13.80;99.90;;;;;;5051911;28;20102;-53
2022/07/28 04:53:35;;;;;;;8.32;4.75;;;13.80;99.90;;;;;;5051446;28;20086;-50
2022/07/28 04:56:02;;;;;;;5.32;4.82;;;13.90;99.90;;;;;;5053202;28;20052;-60
2022/07/28 04:58:29;;;;;;;5.50;4.85;;;13.90;99.90;;;;;;5035721;28;20136;-60
2022/07/28 05:00:56;;;;;;;7.40;4.55;;;13.90;99.90;;;;;;5053220;28;20052;-60
2022/07/28 05:03:23;;;;;;;9.27;5.20;;;14.00;99.90;;;;;;5053326;28;20105;-61
2022/07/28 05:05:50;;;;;;;;;;;14.00;99.90;;;;;;5053523;28;20102;-63
2022/07/28 05:08:21;;;;;;;11.60;4.47;;;14.10;99.90;;;;;;5053572;28;19924;-60
2022/07/28 05:10:52;;;;;;;7.97;5.22;;;14.10;99.90;;;;;;5056752;28;20056;-62
2022/07/28 05:13:19;;;;;;;5.88;5.22;;;14.20;99.90;;;;;;5051302;28;20106;-61
2022/07/28 05:15:46;;;;;;;;;;;14.20;99.90;;;;;;5057777;28;20779;-62
2022/07/28 05:18:13;;;;;;;7.25;5.93;;;14.30;99.90;;;;;;5055537;28;19989;-64
2022/07/28 05:20:39;;;;;;;;;;;14.30;99.90;;;;;;5075894;28;20457;-61
2022/07/28 05:23:07;;;;;;;8.27;5.38;;;14.40;99.90;;;;;;5075252;28;19927;-58
2022/07/28 05:25:34;;;;;;;10.73;5.95;;;14.50;99.90;;;;;;5075969;28;20133;-59
2022/07/28 05:28:00;;;;;;;;;;;14.50;99.90;;;;;;5053677;28;20091;-60
2022/07/28 05:30:28;;;;;;;8.90;5.03;;;14.60;99.90;;;;;;5067345;28;19920;-60
2022/07/28 05:32:58;;;;;;;5.63;5.03;;;14.70;99.90;;;;;;5076049;28;20647;-61
2022/07/28 05:35:25;;;;;;;5.57;5.07;;;14.70;99.90;;;;;;5057644;28;20044;-61
2022/07/28 05:37:52;;;;;;;;;;;14.80;99.90;;;;;;5078125;28;20230;-61
2022/07/28 05:40:19;;;;;;;4.75;4.32;;;14.90;99.90;;;;;;5058593;28;20544;-59
2022/07/28 05:42:49;;;;;;;6.32;4.85;;;15.00;99.90;;;;;;5068683;28;20755;-58
2022/07/28 05:45:15;;;;;;;8.57;4.65;;;15.00;99.90;;;;;;5056092;28;20071;-60
2022/07/28 05:47:46;;;;;;;6.90;4.78;;;15.10;99.90;;;;;;5038837;28;20709;-58
2022/07/28 05:50:14;;;;;;;7.18;4.72;;;15.20;99.90;;;;;;5056153;28;20072;-58
2022/07/28 05:52:41;;;;;;;7.00;4.28;;;15.30;99.90;;;;;;5056289;28;20044;-62
2022/07/28 05:55:08;;;;;;;;;;;15.40;99.90;;;;;;5056417;28;20060;-63
2022/07/28 05:57:36;;;;;;;8.07;4.65;;;15.40;99.90;;;;;;5056524;28;19931;-57
2022/07/28 06:00:09;;;;;;;9.85;5.95;;;15.60;99.90;;;;;;5056497;28;20055;-57
2022/07/28 06:02:39;;;;;;;7.88;4.97;;;15.70;99.90;;;;;;5054711;28;20072;-59
2022/07/28 06:05:07;;;;;;;7.78;4.60;;;15.80;99.90;;;;;;5055899;28;20059;-63
2022/07/28 06:07:34;;;;;;;6.15;4.47;;;15.80;99.90;;;;;;5056112;28;20341;-63
2022/07/28 06:10:14;;;;;;;7.25;5.03;;;15.90;99.90;;;;;;5056003;28;20036;-63
2022/07/28 06:12:46;;;;;;;7.78;5.03;;;16.00;99.90;;;;;;5070919;28;20051;-63
2022/07/28 06:15:15;;;;;;;8.15;5.28;;;16.00;99.90;;;;;;5055938;28;20056;-63
2022/07/28 06:17:42;;;;;;;7.00;4.60;;;16.20;99.90;;;;;;5055848;28;20037;-62
2022/07/28 06:20:10;;;;;;;6.63;5.00;;;16.30;99.90;;;;;;5056024;28;20853;-63
2022/07/28 06:22:42;;;;;;;6.55;4.78;;;16.40;99.90;;;;;;5038096;28;20712;-62
2022/07/28 06:25:18;;;;;;;6.78;5.53;;;16.50;99.90;;;;;;5054102;28;20059;-63
2022/07/28 06:27:46;;;;;;;6.82;5.47;;;16.60;99.90;;;;;;5056383;28;20048;-64
2022/07/28 06:30:14;;;;;;;8.93;4.80;;;16.70;99.90;;;;;;5054451;28;20048;-62
2022/07/28 06:32:41;;;;;;;6.13;5.53;;;16.80;99.90;;;;;;5056061;28;20056;-63
2022/07/28 06:35:09;;;;;;;11.85;5.57;;;16.90;99.90;;;;;;5066510;28;20040;-63
2022/07/28 06:37:36;;;;;;;7.90;5.80;;;16.90;99.90;;;;;;5075663;28;20576;-63
2022/07/28 06:40:04;;;;;;;13.75;6.10;;;17.10;99.90;;;;;;5075216;28;20048;-63
2022/07/28 06:42:32;;;;;;;6.00;5.38;;;17.10;99.90;;;;;;5069266;28;20147;-63
2022/07/28 06:44:58;;;;;;;7.95;5.95;;;17.20;99.90;;;;;;5055117;28;20103;-63
2022/07/28 06:47:26;;;;;;;6.43;5.55;;;17.20;99.90;;;;;;5055904;28;20044;-63
2022/07/28 06:49:52;;;;;;;9.38;5.13;;;17.30;99.90;;;;;;5055579;28;20113;-62
2022/07/28 06:52:20;;;;;;;;;;;17.40;99.90;;;;;;5055663;28;20053;-62
2022/07/28 06:54:50;;;;;;;15.23;6.20;;;17.40;99.90;;;;;;5055446;28;19931;-63
2022/07/28 06:57:19;;;;;;;9.93;6.35;;;17.50;99.90;;;;;;5055323;28;20743;-63
2022/07/28 06:59:47;;;;;;;7.20;5.40;;;17.60;99.90;;;;;;5053322;28;20117;-63
2022/07/28 07:02:16;;;;;;;6.47;5.88;;;17.70;99.90;;;;;;5055038;28;20044;-66
2022/07/28 07:04:44;;;;;;;12.75;7.07;;;17.80;99.90;;;;;;5020186;28;20040;-62
2022/07/28 07:07:12;;;;;;;7.43;6.15;;;17.80;99.90;;;;;;5054857;28;20051;-63
2022/07/28 07:09:43;;;;;;;6.75;6.05;;;18.00;99.90;;;;;;5044358;28;20044;-63
2022/07/28 07:12:10;;;;;;;11.10;5.50;;;18.00;99.90;;;;;;5075244;28;20040;-65
2022/07/28 07:14:37;;;;;;;8.15;6.57;;;18.10;99.90;;;;;;5058156;28;20048;-59
2022/07/28 07:17:03;;;;;;;5.22;4.72;;;18.30;99.90;;;;;;5055251;28;20036;-62
2022/07/28 07:19:30;;;;;;;7.25;5.43;;;18.40;99.90;;;;;;5054649;28;20045;-60
2022/07/28 07:21:57;;;;;;;;;;;18.60;99.90;;;;;;5055984;28;20052;-60
2022/07/28 07:24:24;;;;;;;5.70;5.18;;;18.70;99.90;;;;;;5054583;28;20443;-59
2022/07/28 07:26:51;;;;;;;10.13;5.75;;;18.90;99.90;;;;;;5055336;28;20060;-58
2022/07/28 07:29:18;;;;;;;7.00;5.93;;;19.10;99.90;;;;;;5052818;28;20044;-61
2022/07/28 07:31:45;;;;;;;11.80;5.35;;;19.20;99.90;;;;;;5037273;28;20037;-60
2022/07/28 07:34:18;;;;;;;7.72;5.60;;;19.30;99.90;;;;;;5054440;28;20496;-63
2022/07/28 07:36:45;;;;;;;10.23;5.75;;;19.40;99.90;;;;;;5069516;28;20036;-62
2022/07/28 07:39:12;;;;;;;8.70;6.32;;;19.50;99.90;;;;;;5056356;28;20527;-63
2022/07/28 07:41:39;;;;;;;7.00;5.82;;;19.60;99.90;;;;;;5056172;28;20101;-61
2022/07/28 07:44:05;;;;;;;6.25;5.53;;;19.60;99.90;;;;;;5072358;28;20074;-62
2022/07/28 07:46:32;;;;;;;6.00;5.40;;;19.70;99.90;;;;;;5074378;28;20050;-63
2022/07/28 07:48:59;;;;;;;9.77;5.38;;;19.90;99.90;;;;;;5074499;28;20050;-62
2022/07/28 07:51:26;;;;;;;13.82;5.07;;;20.00;99.90;;;;;;5074065;28;20040;-61
2022/07/28 07:53:53;;;;;;;7.85;5.53;;;20.10;99.90;;;;;;5073289;28;20044;-66
2022/07/28 07:56:20;;;;;;;9.48;5.53;;;20.30;99.90;;;;;;5074765;28;20047;-64
2022/07/28 07:58:48;;;;;;;7.55;5.50;;;20.40;99.90;;;;;;5074031;28;20044;-66
2022/07/28 08:01:22;;;;;;;7.22;5.43;;;20.50;99.90;;;;;;5074730;28;20048;-65
2022/07/28 08:03:49;;;;;;;6.43;5.53;;;20.50;99.90;;;;;;5072221;28;20587;-63
2022/07/28 08:06:15;;;;;;;12.38;5.13;;;20.70;99.90;;;;;;5074304;28;20133;-64
2022/07/28 08:08:52;;;;;;;14.20;5.80;;;20.80;99.90;;;;;;5073634;28;20059;-64
2022/07/28 08:11:19;;;;;;;10.05;5.60;;;21.00;99.90;;;;;;5056271;28;20499;-61
2022/07/28 08:13:46;;;;;;;13.80;5.57;;;21.20;99.90;;;;;;5064534;28;20052;-66
2022/07/28 08:16:12;;;;;;;11.27;4.95;;;21.60;99.90;;;;;;5035909;28;20471;-64
2022/07/28 08:18:39;;;;;;;11.93;5.70;;;22.20;99.90;;;;;;5053594;28;20056;-64
2022/07/28 08:21:06;;;;;;;10.27;5.25;;;22.70;99.90;;;;;;5053557;28;20102;-64
2022/07/28 08:23:33;;;;;;;8.40;5.95;;;23.20;99.90;;;;;;5052412;28;20149;-64
2022/07/28 08:26:01;;;;;;;9.45;5.32;;;23.60;99.90;;;;;;5053578;28;20041;-65
2022/07/28 08:28:28;;;;;;;12.55;6.18;;;24.00;99.90;;;;;;5051565;28;20070;-65
2022/07/28 08:30:55;;;;;;;11.48;5.05;;;24.30;99.90;;;;;;5052538;28;20048;-64
2022/07/28 08:33:21;;;;;;;6.40;5.13;;;24.60;99.90;;;;;;5052010;28;20130;-64
2022/07/28 08:35:49;;;;;;;12.77;5.47;;;24.80;99.90;;;;;;5055019;28;20724;-65
2022/07/28 08:38:16;;;;;;;18.75;6.40;;;25.00;99.90;;;;;;5071818;28;20044;-65
2022/07/28 08:40:47;;;;;;;10.65;6.15;;;25.20;99.90;;;;;;5073744;28;20048;-62
2022/07/28 08:43:32;;;;;;;16.50;5.57;;;25.40;99.90;;;;;;5052993;28;20159;-62
2022/07/28 08:46:01;;;;;;;10.95;6.13;;;25.60;99.90;;;;;;5056423;28;20048;-62
2022/07/28 08:48:32;;;;;;;9.55;6.25;;;25.60;99.90;;;;;;5072995;28;20123;-61
2022/07/28 08:51:01;;;;;;;11.80;5.68;;;25.70;99.90;;;;;;5073948;28;20098;-62
2022/07/28 08:53:30;;;;;;;13.55;7.07;;;25.90;99.90;;;;;;5059478;28;20040;-62
2022/07/28 08:56:06;;;;;;;13.15;5.88;;;26.00;99.90;;;;;;5052896;28;20142;-62
2022/07/28 08:58:36;;;;;;;12.20;7.43;;;26.10;99.90;;;;;;5058680;28;20036;-63
2022/07/28 09:01:06;;;;;;;7.85;6.75;;;26.20;99.70;;;;;;5073666;28;20044;-62
2022/07/28 09:03:33;;;;;;;9.25;6.00;;;26.30;97.70;;;;;;5072599;28;20054;-63
2022/07/28 09:06:00;;;;;;;13.02;6.68;;;26.30;98.20;;;;;;5054786;28;20463;-63
2022/07/28 09:08:27;;;;;;;13.60;7.25;;;26.40;99.50;;;;;;5071752;28;20040;-61
2022/07/28 09:10:54;;;;;;;10.45;5.85;;;26.50;98.30;;;;;;5056614;28;20927;-62
2022/07/28 09:13:21;;;;;;;16.65;7.72;;;26.60;98.70;;;;;;5066958;28;20036;-63
2022/07/28 09:15:48;;;;;;;7.50;6.60;;;26.80;96.80;;;;;;5054556;28;20124;-62
2022/07/28 09:18:16;;;;;;;13.10;6.18;;;27.00;95.50;;;;;;5072691;28;20142;-63
2022/07/28 09:20:44;;;;;;;12.80;6.05;;;27.10;96.20;;;;;;5071266;28;20116;-64
2022/07/28 09:23:12;;;;;;;8.88;5.18;;;27.20;92.00;;;;;;5069053;28;20573;-63
2022/07/28 09:26:09;;;;;;;7.75;6.18;;;27.30;91.20;;;;;;5052176;28;20475;-61
2022/07/28 09:28:51;;;;;;;10.68;6.28;;;27.40;87.80;;;;;;5052859;28;20045;-61
2022/07/28 09:31:19;;;;;;;10.35;5.70;;;27.50;89.40;;;;;;5053082;28;20040;-62
2022/07/28 09:34:01;;;;;;;10.05;6.90;;;27.50;87.20;;;;;;5052697;28;20039;-64
2022/07/28 09:36:38;;;;;;;10.98;6.50;;;27.60;89.40;;;;;;5053072;28;20120;-62
2022/07/28 09:39:06;;;;;;;10.23;6.13;;;27.50;88.90;;;;;;5069136;28;20055;-63
2022/07/28 09:41:47;;;;;;;13.00;5.53;;;27.50;83.40;;;;;;5065913;28;20052;-63
2022/07/28 09:44:18;;;;;;;7.00;5.53;;;27.50;85.90;;;;;;5053522;28;20151;-64
2022/07/28 09:46:45;;;;;;;7.53;5.90;;;27.60;85.50;;;;;;5035077;28;20562;-64
2022/07/28 09:49:13;;;;;;;12.88;6.07;;;27.60;86.10;;;;;;5052370;28;20045;-67
2022/07/28 09:51:40;;;;;;;7.35;6.05;;;27.60;82.20;;;;;;5053118;28;20041;-65
2022/07/28 09:54:13;;;;;;;5.97;5.38;;;27.80;82.30;;;;;;5050791;28;20048;-67
2022/07/28 09:56:43;;;;;;;8.70;4.93;;;27.80;81.80;;;;;;5052872;28;20079;-67
2022/07/28 09:59:11;;;;;;;11.35;4.60;;;27.80;80.00;;;;;;5052936;28;20561;-66
2022/07/28 10:01:57;;;;;;;9.63;5.25;;;27.90;80.30;;;;;;5056374;28;20501;-66
2022/07/28 10:04:34;;;;;;;9.57;4.97;;;28.10;78.30;;;;;;5056155;28;20416;-66
2022/07/28 10:07:12;;;;;;;8.45;4.75;;;28.20;75.70;;;;;;5056787;28;20032;-66
2022/07/28 10:09:40;;;;;;;13.52;5.72;;;28.40;74.30;;;;;;5060483;28;20085;-66
2022/07/28 10:12:14;;;;;;;6.90;5.65;;;28.60;73.10;;;;;;5065837;28;20082;-65
2022/07/28 10:14:41;;;;;;;12.43;4.45;;;28.50;74.30;;;;;;5050327;28;20048;-65
2022/07/28 10:17:09;;;;;;;5.57;4.53;;;28.60;74.60;;;;;;5076137;28;20055;-65
2022/07/28 10:19:36;;;;;;;7.07;5.13;;;28.70;71.80;;;;;;5076192;28;20059;-68
2022/07/28 10:22:04;;;;;;;5.50;4.07;;;28.80;71.40;;;;;;5058545;28;20089;-67
2022/07/28 10:24:36;;;;;;;6.65;5.25;;;28.90;70.30;;;;;;5076406;28;20040;-64
2022/07/28 10:27:04;;;;;;;5.22;4.28;;;28.90;65.80;;;;;;5076171;28;20048;-67
2022/07/28 10:29:31;;;;;;;11.98;4.88;;;28.80;66.20;;;;;;5061496;28;20091;-67
2022/07/28 10:32:04;;;;;;;8.20;4.28;;;28.90;66.70;;;;;;5055852;28;20040;-66
2022/07/28 10:34:31;;;;;;;15.63;4.68;;;28.80;66.90;;;;;;5054727;28;20059;-65
2022/07/28 10:37:00;;;;;;;5.65;4.47;;;28.90;66.80;;;;;;5056044;28;20048;-67
2022/07/28 10:39:34;;;;;;;10.25;4.75;;;29.00;69.20;;;;;;5069532;28;20097;-65
2022/07/28 10:42:02;;;;;;;10.10;4.93;;;29.00;68.30;;;;;;5057219;28;20071;-59
2022/07/28 10:44:30;;;;;;;9.40;4.50;;;29.00;63.40;;;;;;5073083;28;20048;-51
2022/07/28 10:46:57;;;;;;;5.53;3.97;;;29.10;63.90;;;;;;5076189;28;20055;-64
2022/07/28 10:49:27;;;;;;;6.30;3.95;;;29.20;63.80;;;;;;5074587;28;20040;-65
2022/07/28 10:51:59;;;;;;;4.70;3.88;;;29.20;65.50;;;;;;5073899;28;20119;-66
2022/07/28 10:55:07;;;;;;;5.45;3.70;;;29.20;62.20;;;;;;5074991;28;20046;-64
2022/07/28 10:57:40;;;;;;;7.78;3.80;;;29.30;62.50;;;;;;5075595;28;20056;-65
2022/07/28 11:00:16;;;;;;;3.40;3.10;;;29.40;60.50;;;;;;5075000;28;20112;-65
2022/07/28 11:02:57;;;;;;;7.43;3.47;;;29.50;62.10;;;;;;5075665;28;20079;-65
2022/07/28 11:05:28;;;;;;;6.45;3.95;;;29.60;61.40;;;;;;5075539;28;20048;-64
2022/07/28 11:07:58;;;;;;;8.20;3.33;;;29.60;61.30;;;;;;5075529;28;20054;-63
2022/07/28 11:10:26;;;;;;;3.55;3.05;;;29.70;59.00;;;;;;5060937;28;20183;-64
2022/07/28 11:12:55;;;;;;;5.50;3.90;;;29.70;59.40;;;;;;5070455;28;20071;-64
2022/07/28 11:15:36;;;;;;;3.63;3.28;;;29.60;58.70;;;;;;5053739;28;20064;-64
2022/07/28 11:18:08;;;;;;;4.40;3.30;;;29.60;59.20;;;;;;5055026;28;20402;-64
2022/07/28 11:20:51;;;;;;;3.05;2.47;;;29.60;59.10;;;;;;5054360;28;20045;-64
2022/07/28 11:23:42;;;;;;;7.20;3.17;;;29.70;57.80;;;;;;5052407;28;20610;-64
2022/07/28 11:26:33;;;;;;;6.43;3.30;;;29.80;57.50;;;;;;5054845;28;20043;-64
2022/07/28 11:29:04;;;;;;;6.03;3.10;;;29.90;57.90;;;;;;5053013;28;20056;-64
2022/07/28 11:31:51;;;;;;;7.43;3.42;;;29.90;56.60;;;;;;5054441;28;20044;-64
2022/07/28 11:34:22;;;;;;;3.30;3.00;;;30.00;55.20;;;;;;5056296;28;20059;-64
2022/07/28 11:37:09;;;;;;;4.85;3.40;;;30.00;55.20;;;;;;5072311;28;20058;-64
2022/07/28 11:39:41;;;;;;;8.15;3.28;;;30.10;56.00;;;;;;5071476;28;20570;-64
2022/07/28 11:42:31;;;;;;;6.20;3.17;;;30.10;55.20;;;;;;5068742;28;20048;-64
2022/07/28 11:45:23;;;;;;;5.65;3.65;;;30.20;55.70;;;;;;5059565;28;20044;-64
2022/07/28 11:48:14;;;;;;;5.53;3.35;;;30.20;54.80;;;;;;5073996;28;20064;-65
2022/07/28 11:50:41;;;;;;;6.07;2.70;;;30.10;55.70;;;;;;5072342;28;20048;-66
2022/07/28 11:53:09;;;;;;;6.57;3.28;;;30.20;55.60;;;;;;5074403;28;20122;-64
2022/07/28 11:55:36;;;;;;;4.95;2.97;;;30.30;55.80;;;;;;5074035;28;20129;-66
2022/07/28 11:58:24;;;;;;;7.22;2.78;;;30.40;54.40;;;;;;5055268;28;20104;-66
2022/07/28 12:01:16;;;;;;;5.25;3.00;;;30.60;54.40;;;;;;5073393;28;20233;-65
2022/07/28 12:03:47;;;;;;;5.20;2.97;;;30.60;54.20;;;;;;5073257;28;20688;-63
2022/07/28 12:06:33;;;;;;;7.30;3.10;;;30.70;52.70;;;;;;5077395;28;20048;-64
2022/07/28 12:09:05;;;;;;;5.03;3.20;;;30.80;53.00;;;;;;5081603;28;20036;-66
2022/07/28 12:11:36;;;;;;;3.83;2.75;;;30.80;52.30;;;;;;5065449;28;20035;-66
2022/07/28 12:14:07;;;;;;;3.35;2.30;;;30.80;52.80;;;;;;5061433;28;20044;-64
2022/07/28 12:16:36;;;;;;;5.78;2.70;;;30.80;51.60;;;;;;5059750;28;20048;-65
2022/07/28 12:19:07;;;;;;;3.78;3.45;;;30.90;53.50;;;;;;5055725;28;20083;-64
2022/07/28 12:21:45;;;;;;;5.05;2.20;;;30.90;53.30;;;;;;5068922;28;20154;-62
2022/07/28 12:24:16;;;;;;;4.32;3.17;;;31.10;52.60;;;;;;5073660;28;20047;-63
2022/07/28 12:26:45;;;;;;;10.27;3.00;;;31.10;52.40;;;;;;5056944;28;20113;-63
2022/07/28 12:29:16;;;;;;;5.55;2.75;;;31.20;53.10;;;;;;5055641;28;20047;-64
2022/07/28 12:31:54;;;;;;;5.47;2.80;;;31.30;52.00;;;;;;5054301;28;20064;-64
2022/07/28 12:34:22;;;;;;;4.15;2.38;;;31.40;52.10;;;;;;5034780;28;20143;-63
2022/07/28 12:36:56;;;;;;;6.95;2.60;;;31.40;51.10;;;;;;5052131;28;20511;-63
2022/07/28 12:39:24;;;;;;;3.78;2.42;;;31.30;52.20;;;;;;5034166;28;20491;-62
2022/07/28 12:41:59;;;;;;;9.20;2.20;;;31.30;50.70;;;;;;5053664;28;20106;-64
2022/07/28 12:44:34;;;;;;;7.78;2.20;;;31.30;50.90;;;;;;5039324;28;20048;-63
2022/07/28 12:47:02;;;;;;;4.18;2.10;;;31.30;50.10;;;;;;5073136;28;20059;-63
2022/07/28 12:49:29;;;;;;;4.78;2.50;;;31.30;49.20;;;;;;5070615;28;20461;-62
2022/07/28 12:51:57;;;;;;;5.80;2.20;;;31.40;52.40;;;;;;5072670;28;20055;-63
2022/07/28 12:54:37;;;;;;;5.53;2.35;;;31.50;49.90;;;;;;5070419;28;20132;-63
2022/07/28 12:57:04;;;;;;;6.53;2.72;;;31.60;50.60;;;;;;5069956;28;20058;-63
2022/07/28 12:59:32;;;;;;;5.80;2.28;;;31.50;48.70;;;;;;5078000;28;20447;-63
2022/07/28 13:01:59;;;;;;;3.53;2.20;;;31.40;49.00;;;;;;5058055;28;20102;-66
2022/07/28 13:04:48;;;;;;;2.30;2.10;;;31.40;49.50;;;;;;5068998;28;20126;-63
2022/07/28 13:07:21;;;;;;;3.95;2.78;;;31.50;48.50;;;;;;5072595;28;20044;-63
2022/07/28 13:10:00;;;;;;;4.32;1.92;;;31.70;48.30;;;;;;5065608;28;20079;-64
2022/07/28 13:12:29;;;;;;;12.57;3.30;;;31.70;48.80;;;;;;5066162;28;20097;-63